»·PEaware :: PAA9 KSAN-KLAS

PAA9 :: KSAN-KLAS

FLIGHT INFORMATION

Flight Status: Arrived
Operator:
PanAm
More flights by this operator :: More flights under this callsign
Pilot: Anonymous 27634 (27634)
Aircraft: MCDONNELL-DOUGLAS SKYTRAIN C-47
(DC3)
More flights by this aircraft type
Origin: KSAN San Diego Intl-Lindbergh
United States
Destination: KLAS McCarran Intl
United States
More flights between these airports :: More routes between these airports
Route: +
File this flight plan on PilotEdge
Remarks:
Altitude:
(Current/Filed)
11,500ft
Speed:
(Current/Filed)
0kts
Departed: 12-Feb-20 08:15 AM
Arrived: 12-Feb-20 10:09 AM
Distance/Time
Traveled:
225nm/1:54
Distance/Time
To Go:
Arrived

Flight Plot

Page will automatically refresh every two minutes.


Map Options




Map Legend


Flown Route
Filed Route
Departure Airport
Arrival Airport
Navaid (VOR, NDB)
Fix

Horizontal Profiles

Position Reports

Time Latitude Longitude Heading Altitude Ground
Speed
12-Feb-20 08:05 32.737995 -117.186241 354 25ft 0kts
12-Feb-20 08:06 32.737995 -117.186241 354 25ft 0kts
12-Feb-20 08:07 32.737995 -117.186241 354 25ft 0kts
12-Feb-20 08:08 32.737995 -117.186241 354 25ft 0kts
12-Feb-20 08:09 32.738025 -117.186538 157 25ft 9kts
12-Feb-20 08:10 32.733813 -117.183918 184 25ft 17kts
12-Feb-20 08:11 32.731867 -117.177932 105 25ft 21kts
12-Feb-20 08:12 32.730882 -117.175423 144 25ft 0kts
12-Feb-20 08:13 32.730439 -117.176798 286 25ft 29kts
12-Feb-20 08:14 32.740346 -117.206620 318 673ft 131kts
12-Feb-20 08:15 32.769191 -117.236456 320 1171ft 135kts
12-Feb-20 08:16 32.795605 -117.265286 314 1401ft 133kts
12-Feb-20 08:17 32.823640 -117.294760 317 1400ft 136kts
12-Feb-20 08:18 32.849202 -117.328447 310 1397ft 137kts
12-Feb-20 08:19 32.879337 -117.354001 347 1396ft 136kts
12-Feb-20 08:20 32.920894 -117.356813 4 1398ft 170kts
12-Feb-20 08:21 32.968230 -117.342967 25 1458ft 176kts
12-Feb-20 08:22 33.004406 -117.311775 45 1559ft 127kts
12-Feb-20 08:23 33.027590 -117.281181 51 1618ft 124kts
12-Feb-20 08:24 33.048678 -117.249377 55 2578ft 123kts
12-Feb-20 08:25 33.065352 -117.215770 73 4019ft 126kts
12-Feb-20 08:26 33.073634 -117.176972 71 5490ft 127kts
12-Feb-20 08:27 33.083080 -117.134578 72 6676ft 135kts
12-Feb-20 08:28 33.091916 -117.091292 72 7838ft 134kts
12-Feb-20 08:29 33.100175 -117.047978 72 8942ft 134kts
12-Feb-20 08:30 33.119168 -117.011566 50 10009ft 129kts
12-Feb-20 08:31 33.139016 -116.976090 48 11019ft 128kts
12-Feb-20 08:32 33.164279 -116.943107 30 11425ft 147kts
12-Feb-20 08:33 33.199644 -116.917420 22 11423ft 150kts
12-Feb-20 08:34 33.236914 -116.894548 21 11423ft 150kts
12-Feb-20 08:35 33.274168 -116.872467 21 11424ft 149kts
12-Feb-20 08:36 33.311171 -116.850229 21 11424ft 149kts
12-Feb-20 08:37 33.348324 -116.828222 20 11424ft 149kts
12-Feb-20 08:38 33.385678 -116.806189 20 11422ft 149kts
12-Feb-20 08:39 33.422996 -116.784178 20 11420ft 150kts
12-Feb-20 08:40 33.460140 -116.762257 20 11451ft 149kts
12-Feb-20 08:41 33.497042 -116.740452 20 11447ft 146kts
12-Feb-20 08:42 33.533398 -116.718957 20 11444ft 145kts
12-Feb-20 08:43 33.569510 -116.697586 20 11441ft 144kts
12-Feb-20 08:44 33.599693 -116.679707 20 11438ft 144kts
12-Feb-20 08:45 33.635730 -116.658342 20 11434ft 144kts
12-Feb-20 08:46 33.671771 -116.636954 20 11431ft 144kts
12-Feb-20 08:47 33.707507 -116.615723 20 11466ft 142kts
12-Feb-20 08:48 33.743276 -116.594463 20 11467ft 143kts
12-Feb-20 08:49 33.778999 -116.573204 20 11467ft 143kts
12-Feb-20 08:50 33.814861 -116.551842 20 11467ft 143kts
12-Feb-20 08:51 33.850802 -116.530413 20 11467ft 143kts
12-Feb-20 08:52 33.886558 -116.509075 20 11467ft 143kts
12-Feb-20 08:53 33.922454 -116.487632 20 11466ft 143kts
12-Feb-20 08:54 33.958186 -116.466268 20 11466ft 143kts
12-Feb-20 08:55 33.994080 -116.444786 20 11466ft 143kts
12-Feb-20 08:56 34.029804 -116.423386 20 11466ft 143kts
12-Feb-20 08:57 34.065542 -116.401957 20 11466ft 143kts
12-Feb-20 08:58 34.101237 -116.380531 20 11477ft 143kts
12-Feb-20 08:59 34.137062 -116.359016 20 11499ft 144kts
12-Feb-20 09:00 34.172653 -116.336060 21 11512ft 145kts
12-Feb-20 09:01 34.208442 -116.313971 20 11523ft 144kts
12-Feb-20 09:02 34.244479 -116.292161 20 11533ft 144kts
12-Feb-20 09:03 34.278971 -116.271326 20 11533ft 144kts
12-Feb-20 09:04 34.310480 -116.252300 20 11533ft 144kts
12-Feb-20 09:05 34.346467 -116.230556 20 11532ft 144kts
12-Feb-20 09:06 34.382761 -116.213782 28 11541ft 144kts
12-Feb-20 09:07 34.402307 -116.231970 262 11535ft 156kts
12-Feb-20 09:08 34.389893 -116.282753 261 11532ft 157kts
12-Feb-20 09:09 34.380817 -116.319618 261 11532ft 158kts
12-Feb-20 09:10 34.368144 -116.370728 261 11532ft 158kts
12-Feb-20 09:11 34.356004 -116.421990 282 11521ft 151kts
12-Feb-20 09:12 34.384349 -116.453345 328 11521ft 141kts
12-Feb-20 09:13 34.419651 -116.475084 335 11515ft 142kts
12-Feb-20 09:14 34.452866 -116.493939 335 11511ft 143kts
12-Feb-20 09:15 34.490867 -116.508627 342 11507ft 143kts
12-Feb-20 09:16 34.528942 -116.522876 342 11503ft 143kts
12-Feb-20 09:17 34.567538 -116.535012 353 11500ft 144kts
12-Feb-20 09:18 34.607569 -116.538889 353 11493ft 144kts
12-Feb-20 09:19 34.647556 -116.542617 358 11483ft 145kts
12-Feb-20 09:20 34.687511 -116.533201 11 11481ft 148kts
12-Feb-20 09:21 34.724241 -116.509650 47 11468ft 160kts
12-Feb-20 09:22 34.748830 -116.464095 48 11475ft 161kts
12-Feb-20 09:23 34.773478 -116.418609 48 11475ft 161kts
12-Feb-20 09:24 34.798137 -116.373331 48 11479ft 160kts
12-Feb-20 09:25 34.822750 -116.327920 49 11490ft 160kts
12-Feb-20 09:26 34.847262 -116.282526 48 11500ft 159kts
12-Feb-20 09:27 34.871718 -116.237459 48 11510ft 159kts
12-Feb-20 09:28 34.896247 -116.192486 48 11517ft 159kts
12-Feb-20 09:29 34.920783 -116.147722 48 11516ft 159kts
12-Feb-20 09:30 34.945491 -116.102861 48 11508ft 159kts
12-Feb-20 09:31 34.970203 -116.058210 48 11499ft 159kts
12-Feb-20 09:32 34.995083 -116.013475 48 11491ft 159kts
12-Feb-20 09:34 35.020010 -115.968871 48 11482ft 159kts
12-Feb-20 09:35 35.045069 -115.924250 48 11474ft 159kts
12-Feb-20 09:36 35.070091 -115.879901 47 11481ft 158kts
12-Feb-20 09:37 35.095107 -115.835783 47 11487ft 158kts
12-Feb-20 09:38 35.120366 -115.791463 47 11496ft 159kts
12-Feb-20 09:39 35.147023 -115.748832 36 11497ft 155kts
12-Feb-20 09:40 35.181856 -115.719195 24 11492ft 151kts
12-Feb-20 09:41 35.218640 -115.694790 20 11486ft 151kts
12-Feb-20 09:42 35.256441 -115.670933 20 11488ft 153kts
12-Feb-20 09:43 35.294648 -115.647152 20 11488ft 154kts
12-Feb-20 09:44 35.332883 -115.623395 20 11488ft 154kts
12-Feb-20 09:45 35.359512 -115.606844 20 11488ft 154kts
12-Feb-20 09:46 35.397799 -115.583029 20 11488ft 154kts
12-Feb-20 09:47 35.436055 -115.559208 20 11488ft 154kts
12-Feb-20 09:48 35.474297 -115.535370 20 11487ft 154kts
12-Feb-20 09:49 35.512570 -115.511488 20 11487ft 154kts
12-Feb-20 09:50 35.550786 -115.487615 20 11487ft 154kts
12-Feb-20 09:51 35.589104 -115.463653 20 11487ft 154kts
12-Feb-20 09:51 35.620900 -115.443750 20 11487ft 154kts
12-Feb-20 09:53 35.665441 -115.415500 20 11487ft 154kts
12-Feb-20 09:54 35.703616 -115.391352 20 11487ft 154kts
12-Feb-20 09:54 35.735285 -115.371419 20 11487ft 154kts
12-Feb-20 09:55 35.773584 -115.347293 20 11485ft 154kts
12-Feb-20 09:57 35.820268 -115.317868 21 11105ft 168kts
12-Feb-20 09:57 35.855365 -115.295702 20 10825ft 171kts
12-Feb-20 09:58 35.896764 -115.268889 25 10638ft 160kts
12-Feb-20 09:59 35.934946 -115.244550 24 10640ft 150kts
12-Feb-20 10:00 35.971816 -115.221197 24 10640ft 148kts
12-Feb-20 10:01 36.009468 -115.197318 20 10641ft 155kts
12-Feb-20 10:02 36.048885 -115.180832 357 9369ft 185kts
12-Feb-20 10:03 36.102220 -115.177543 18 7171ft 180kts
12-Feb-20 10:04 36.131958 -115.155450 104 5651ft 130kts
12-Feb-20 10:05 36.142979 -115.140744 76 3599ft 109kts
12-Feb-20 10:06 36.120122 -115.144698 198 2944ft 89kts
12-Feb-20 10:07 36.098994 -115.156869 204 2235ft 74kts
12-Feb-20 10:08 36.089290 -115.163125 286 2189ft 10kts
12-Feb-20 10:09 36.089455 -115.163626 295 2189ft 12kts
12-Feb-20 10:10 36.086862 -115.166345 261 2189ft 8kts
12-Feb-20 10:11 36.087299 -115.166532 109 2189ft 0kts
12-Feb-20 10:12 36.087299 -115.166532 109 2189ft 0kts

Navigation Log

Ident Type
Flight plan parsing failed, navigation log unavailable